createdAt,value
2024-04-09T00:00:25.812Z,12.15
2024-04-09T00:03:33.245Z,11.43
2024-04-09T00:06:37.454Z,7.30
2024-04-09T00:09:46.926Z,6.57
2024-04-09T00:12:50.797Z,10.75
2024-04-09T00:15:55.181Z,9.77
2024-04-09T00:19:00.722Z,6.65
2024-04-09T00:22:04.744Z,5.35
2024-04-09T00:25:08.376Z,5.27
2024-04-09T00:28:12.774Z,5.72
2024-04-09T00:31:18.358Z,6.10
2024-04-09T00:34:24.316Z,5.82
2024-04-09T00:37:28.064Z,6.82
2024-04-09T00:40:31.518Z,6.87
2024-04-09T00:43:35.560Z,6.90
2024-04-09T00:46:39.036Z,6.13
2024-04-09T00:49:42.601Z,5.47
2024-04-09T00:52:50.045Z,7.25
2024-04-09T00:55:54.388Z,6.23
2024-04-09T00:58:57.888Z,6.20
2024-04-09T01:02:01.834Z,6.22
2024-04-09T01:05:07.029Z,5.68
2024-04-09T01:08:10.510Z,11.73
2024-04-09T01:11:14.038Z,9.57
2024-04-09T01:14:17.487Z,8.43
2024-04-09T01:17:21.344Z,7.35
2024-04-09T01:20:24.848Z,10.82
2024-04-09T01:23:28.329Z,12.70
2024-04-09T01:26:31.789Z,10.37
2024-04-09T01:29:35.248Z,9.90
2024-04-09T01:32:38.847Z,8.18
2024-04-09T01:35:42.372Z,9.07
2024-04-09T01:38:47.228Z,8.30
2024-04-09T01:41:50.728Z,8.17
2024-04-09T01:44:54.288Z,7.10
2024-04-09T01:47:57.981Z,6.22
2024-04-09T01:51:01.556Z,6.50
2024-04-09T01:54:05.944Z,7.85
2024-04-09T01:57:09.501Z,7.67
2024-04-09T02:00:13.718Z,7.20
2024-04-09T02:03:17.355Z,7.80
2024-04-09T02:06:22.068Z,7.43
2024-04-09T02:09:26.929Z,7.88
2024-04-09T02:12:30.569Z,8.47
2024-04-09T02:15:34.250Z,8.45
2024-04-09T02:18:38.606Z,7.80
2024-04-09T02:21:42.249Z,8.18
2024-04-09T02:24:45.988Z,7.20
2024-04-09T02:27:49.583Z,7.73
2024-04-09T02:30:53.113Z,6.47
2024-04-09T02:33:56.828Z,6.50
2024-04-09T02:37:00.320Z,6.72
2024-04-09T02:40:07.876Z,6.78
2024-04-09T02:43:11.412Z,6.50
2024-04-09T02:46:15.326Z,6.45
2024-04-09T02:49:18.822Z,6.68
2024-04-09T02:52:22.348Z,8.88
2024-04-09T02:55:25.827Z,7.70
2024-04-09T02:58:29.562Z,9.40
2024-04-09T03:01:33.162Z,11.55
2024-04-09T03:04:37.308Z,12.45
2024-04-09T03:07:40.847Z,11.45
2024-04-09T03:10:44.366Z,13.10
2024-04-09T03:13:51.105Z,12.57
2024-04-09T03:16:54.626Z,13.15
2024-04-09T03:19:58.164Z,13.32
2024-04-09T03:23:01.935Z,12.82
2024-04-09T03:26:07.974Z,13.13
2024-04-09T03:29:11.538Z,13.10
2024-04-09T03:32:15.022Z,13.18
2024-04-09T03:35:18.538Z,12.20
2024-04-09T03:38:22.321Z,13.20
2024-04-09T03:41:25.828Z,12.57
2024-04-09T03:44:29.322Z,12.80
2024-04-09T03:47:32.892Z,11.85
2024-04-09T03:50:38.657Z,12.65
2024-04-09T03:53:42.749Z,11.27
2024-04-09T03:56:46.204Z,12.95
2024-04-09T03:59:49.667Z,11.27
2024-04-09T04:02:53.104Z,11.55
2024-04-09T04:05:58.269Z,10.93
2024-04-09T04:09:01.934Z,9.68
2024-04-09T04:12:06.043Z,9.98
2024-04-09T04:15:11.260Z,9.97
2024-04-09T04:18:15.009Z,10.07
2024-04-09T04:21:23.274Z,9.75
2024-04-09T04:24:30.023Z,10.68
2024-04-09T04:27:33.719Z,9.73
2024-04-09T04:30:37.376Z,9.47
2024-04-09T04:33:42.185Z,9.02
2024-04-09T04:36:45.859Z,8.80
2024-04-09T04:39:49.431Z,8.57
2024-04-09T04:42:52.887Z,9.18
2024-04-09T04:45:56.669Z,8.47
2024-04-09T04:49:00.505Z,8.18
2024-04-09T04:52:05.562Z,8.30
2024-04-09T04:55:09.040Z,8.10
2024-04-09T04:58:12.515Z,9.15
2024-04-09T05:01:16.545Z,7.80
2024-04-09T05:04:20.268Z,9.13
2024-04-09T05:07:23.844Z,9.23
2024-04-09T05:10:27.438Z,9.25
2024-04-09T05:13:30.869Z,9.30
2024-04-09T05:16:34.369Z,9.33
2024-04-09T05:19:38.007Z,9.55
2024-04-09T05:22:43.308Z,10.25
2024-04-09T05:25:47.050Z,9.23
2024-04-09T05:28:50.574Z,9.25
2024-04-09T05:31:54.139Z,8.60
2024-04-09T05:34:58.108Z,8.30
2024-04-09T05:38:01.756Z,7.32
2024-04-09T05:41:06.268Z,7.95
2024-04-09T05:44:10.055Z,7.93
2024-04-09T05:47:13.728Z,7.73
2024-04-09T05:50:18.836Z,7.90
2024-04-09T05:53:22.718Z,8.65
2024-04-09T05:56:26.322Z,8.07
2024-04-09T05:59:31.757Z,7.82
2024-04-09T06:02:35.608Z,8.47
2024-04-09T06:05:39.622Z,8.93
2024-04-09T06:08:43.957Z,8.43
2024-04-09T06:11:48.289Z,7.55
2024-04-09T06:14:55.330Z,7.82
2024-04-09T06:17:59.006Z,6.73
2024-04-09T06:21:02.629Z,7.13
2024-04-09T06:24:08.605Z,7.53
2024-04-09T06:27:12.416Z,7.55
2024-04-09T06:30:17.600Z,7.63
2024-04-09T06:33:22.383Z,7.97
2024-04-09T06:36:28.225Z,7.50
2024-04-09T06:39:31.950Z,7.47
2024-04-09T06:42:35.579Z,6.32
2024-04-09T06:45:39.681Z,7.82
2024-04-09T06:48:43.395Z,7.00
2024-04-09T06:51:47.707Z,7.20
2024-04-09T06:54:51.696Z,7.15
2024-04-09T06:57:55.307Z,5.68
2024-04-09T07:00:58.908Z,6.65
2024-04-09T07:04:02.955Z,6.10
2024-04-09T07:07:06.617Z,6.07
2024-04-09T07:10:10.200Z,5.82
2024-04-09T07:13:13.876Z,6.22
2024-04-09T07:16:17.707Z,5.35
2024-04-09T07:19:21.213Z,5.60
2024-04-09T07:22:24.945Z,5.68
2024-04-09T07:25:28.920Z,6.35
2024-04-09T07:28:32.636Z,5.85
2024-04-09T07:31:37.518Z,5.60
2024-04-09T07:34:44.710Z,5.30
2024-04-09T07:37:48.218Z,5.60
2024-04-09T07:40:51.735Z,4.57
2024-04-09T07:43:57.134Z,4.40
2024-04-09T07:47:00.866Z,4.63
2024-04-09T07:50:10.597Z,4.70
2024-04-09T07:53:16.183Z,4.90
2024-04-09T07:56:21.542Z,4.45
2024-04-09T07:59:28.615Z,6.60
2024-04-09T08:02:32.389Z,5.50
2024-04-09T08:05:37.965Z,5.17
2024-04-09T08:08:43.410Z,5.68
2024-04-09T08:11:51.210Z,5.55
2024-04-09T08:14:54.796Z,6.18
2024-04-09T08:17:58.539Z,6.10
2024-04-09T08:21:04.225Z,4.70
2024-04-09T08:24:09.477Z,5.00
2024-04-09T08:27:16.328Z,4.90
2024-04-09T08:30:25.445Z,4.15
2024-04-09T08:33:29.300Z,4.70
2024-04-09T08:36:32.957Z,4.80
2024-04-09T08:39:37.110Z,4.40
2024-04-09T08:42:44.017Z,5.70
2024-04-09T08:45:49.265Z,4.50
2024-04-09T08:48:54.424Z,4.60
2024-04-09T08:52:02.760Z,4.30
2024-04-09T08:55:10.671Z,4.03
2024-04-09T08:58:17.144Z,4.68
2024-04-09T09:01:30.950Z,4.57
2024-04-09T09:04:38.484Z,4.60
2024-04-09T09:07:45.731Z,4.23
2024-04-09T09:11:10.592Z,4.43
2024-04-09T09:14:15.786Z,4.25
2024-04-09T09:17:19.298Z,4.13
2024-04-09T09:20:23.717Z,4.35
2024-04-09T09:23:27.337Z,3.60
2024-04-09T09:26:31.652Z,4.57
2024-04-09T09:29:35.432Z,3.92
2024-04-09T09:32:47.293Z,3.50
2024-04-09T09:35:52.318Z,3.88
2024-04-09T09:38:56.152Z,3.57
2024-04-09T09:42:02.439Z,3.50
2024-04-09T09:45:10.147Z,3.67
2024-04-09T09:48:14.612Z,3.50
2024-04-09T09:51:18.456Z,3.75
2024-04-09T09:54:24.201Z,3.50
2024-04-09T09:57:29.867Z,3.25
2024-04-09T10:00:37.301Z,3.70
2024-04-09T10:03:41.603Z,3.30
2024-04-09T10:07:04.869Z,3.10
2024-04-09T10:10:09.440Z,3.37
2024-04-09T10:13:13.099Z,2.88
2024-04-09T10:16:23.148Z,3.40
2024-04-09T10:19:38.713Z,3.25
2024-04-09T10:22:45.463Z,3.03
2024-04-09T10:25:49.031Z,3.43
2024-04-09T10:29:02.305Z,3.95
2024-04-09T10:32:19.449Z,3.22
2024-04-09T10:35:23.557Z,3.40
2024-04-09T10:38:27.589Z,3.22
2024-04-09T10:41:33.392Z,2.80
2024-04-09T10:44:36.978Z,5.10
2024-04-09T10:47:41.252Z,9.25
2024-04-09T10:50:44.892Z,4.50
2024-04-09T10:53:48.464Z,3.25
2024-04-09T10:57:01.372Z,3.30
2024-04-09T11:00:15.083Z,3.28
2024-04-09T11:03:23.294Z,3.40
2024-04-09T11:06:27.892Z,2.95
2024-04-09T11:09:31.680Z,3.88
2024-04-09T11:12:37.122Z,3.17
2024-04-09T11:15:44.091Z,3.50
2024-04-09T11:19:01.982Z,3.40
2024-04-09T11:22:08.177Z,2.95
2024-04-09T11:25:14.675Z,3.00
2024-04-09T11:28:18.332Z,2.80
2024-04-09T11:31:28.097Z,2.92
2024-04-09T11:34:34.398Z,2.80
2024-04-09T11:37:48.570Z,3.10
2024-04-09T11:40:52.549Z,2.90
2024-04-09T11:44:02.359Z,3.00
2024-04-09T11:47:05.991Z,3.65
2024-04-09T11:50:10.832Z,3.30
2024-04-09T11:53:19.966Z,3.03
2024-04-09T11:56:24.453Z,2.90
2024-04-09T11:59:28.022Z,2.70
2024-04-09T12:02:31.830Z,2.70
2024-04-09T12:05:35.387Z,2.80
2024-04-09T12:08:39.014Z,3.13
2024-04-09T12:11:42.611Z,2.80
2024-04-09T12:14:46.072Z,2.70
2024-04-09T12:17:49.685Z,2.90
2024-04-09T12:20:53.906Z,2.80
2024-04-09T12:23:57.988Z,2.60
2024-04-09T12:27:01.638Z,2.72
2024-04-09T12:30:09.739Z,2.50
2024-04-09T12:33:14.373Z,2.50
2024-04-09T12:36:17.974Z,3.20
2024-04-09T12:39:21.675Z,2.30
2024-04-09T12:42:27.947Z,3.03
2024-04-09T12:45:31.644Z,3.03
2024-04-09T12:48:35.534Z,2.45
2024-04-09T12:51:39.775Z,2.47
2024-04-09T12:54:43.528Z,2.63
2024-04-09T12:57:47.289Z,2.75
2024-04-09T13:01:05.367Z,3.00
2024-04-09T13:04:14.906Z,2.58
2024-04-09T13:07:20.087Z,2.78
2024-04-09T13:10:23.710Z,2.90
2024-04-09T13:13:27.713Z,2.50
2024-04-09T13:19:38.176Z,2.70
2024-04-09T13:22:42.617Z,2.67
2024-04-09T13:25:47.019Z,2.60
2024-04-09T13:28:50.937Z,3.08
2024-04-09T13:31:54.922Z,2.63
2024-04-09T13:34:58.833Z,2.35
2024-04-09T13:38:02.774Z,2.25
2024-04-09T13:41:06.357Z,3.00
2024-04-09T13:44:10.177Z,2.40
2024-04-09T13:47:13.862Z,2.27
2024-04-09T13:50:18.407Z,2.53
2024-04-09T13:53:22.315Z,2.63
2024-04-09T13:56:25.900Z,2.00
2024-04-09T13:59:32.754Z,2.05
2024-04-09T14:02:36.811Z,2.10
2024-04-09T14:05:40.405Z,2.08
2024-04-09T14:08:43.957Z,2.30
2024-04-09T14:11:47.709Z,2.17
2024-04-09T14:14:53.739Z,1.92
2024-04-09T14:17:58.806Z,2.00
2024-04-09T14:21:03.962Z,2.08
2024-04-09T14:24:08.063Z,2.08
2024-04-09T14:27:11.659Z,2.22
2024-04-09T14:30:15.867Z,2.30
2024-04-09T14:33:19.864Z,1.87
2024-04-09T14:36:23.491Z,1.90
2024-04-09T14:39:27.207Z,2.05
2024-04-09T14:42:30.756Z,1.88
2024-04-09T14:45:34.393Z,2.00
2024-04-09T14:48:38.035Z,1.73
2024-04-09T14:51:42.459Z,1.70
2024-04-09T14:54:50.039Z,1.80
2024-04-09T14:57:54.475Z,1.90
2024-04-09T15:00:58.297Z,2.38
2024-04-09T15:04:02.597Z,2.20
2024-04-09T15:07:06.396Z,1.67
2024-04-09T15:10:12.677Z,1.95
2024-04-09T15:13:16.461Z,1.95
2024-04-09T15:16:20.035Z,1.90
2024-04-09T15:19:23.547Z,1.90
2024-04-09T15:22:27.039Z,1.70
2024-04-09T15:25:30.789Z,1.98
2024-04-09T15:28:37.870Z,1.75
2024-04-09T15:31:42.200Z,2.40
2024-04-09T15:34:50.219Z,1.97
2024-04-09T15:37:54.129Z,2.03
2024-04-09T15:40:58.189Z,1.77
2024-04-09T15:44:01.817Z,2.45
2024-04-09T15:47:06.252Z,2.10
2024-04-09T15:50:09.948Z,1.77
2024-04-09T15:53:13.777Z,2.00
2024-04-09T15:56:18.238Z,2.00
2024-04-09T15:59:21.871Z,2.20
2024-04-09T16:02:25.542Z,2.45
2024-04-09T16:05:30.296Z,1.87
2024-04-09T16:08:34.503Z,1.92
2024-04-09T16:11:38.119Z,2.70
2024-04-09T16:14:45.909Z,2.00
2024-04-09T16:17:50.371Z,2.00
2024-04-09T16:21:02.315Z,1.80
2024-04-09T16:24:06.004Z,2.00
2024-04-09T16:27:09.885Z,1.80
2024-04-09T16:30:16.244Z,1.60
2024-04-09T16:33:19.910Z,2.20
2024-04-09T16:36:24.052Z,2.40
2024-04-09T16:39:28.008Z,2.67
2024-04-09T16:42:32.418Z,2.95
2024-04-09T16:45:36.008Z,2.00
2024-04-09T16:48:40.525Z,2.15
2024-04-09T16:51:44.725Z,1.90
2024-04-09T16:54:48.470Z,1.98
2024-04-09T16:57:51.927Z,2.03
2024-04-09T17:00:56.476Z,1.83
2024-04-09T17:04:00.224Z,2.00
2024-04-09T17:07:04.772Z,1.80
2024-04-09T17:10:11.661Z,1.80
2024-04-09T17:13:15.924Z,1.88
2024-04-09T17:16:19.962Z,2.00
2024-04-09T17:19:23.446Z,1.85
2024-04-09T17:22:27.801Z,1.90
2024-04-09T17:25:32.175Z,2.20
2024-04-09T17:28:35.708Z,2.10
2024-04-09T17:31:39.217Z,2.25
2024-04-09T17:34:42.719Z,2.15
2024-04-09T17:37:47.641Z,2.00
2024-04-09T17:40:51.174Z,2.38
2024-04-09T17:43:55.383Z,3.38
2024-04-09T17:46:58.924Z,8.60
2024-04-09T17:50:02.717Z,6.25
2024-04-09T17:53:06.310Z,4.47
2024-04-09T17:56:09.849Z,5.32
2024-04-09T17:59:13.727Z,6.85
2024-04-09T18:02:17.350Z,6.55
2024-04-09T18:05:21.542Z,6.25
2024-04-09T18:08:25.651Z,6.33
2024-04-09T18:11:29.737Z,6.88
2024-04-09T18:14:33.492Z,5.80
2024-04-09T18:17:38.751Z,5.25
2024-04-09T18:20:42.420Z,6.50
2024-04-09T18:23:48.912Z,5.70
2024-04-09T18:26:52.418Z,6.25
2024-04-09T18:29:56.250Z,8.00
2024-04-09T18:33:00.543Z,7.50
2024-04-09T18:36:06.302Z,5.05
2024-04-09T18:39:11.859Z,4.33
2024-04-09T18:42:15.427Z,3.80
2024-04-09T18:45:19.603Z,3.92
2024-04-09T18:48:23.409Z,4.50
2024-04-09T18:51:26.894Z,5.00
2024-04-09T18:54:30.969Z,5.50
2024-04-09T18:57:35.039Z,5.75
2024-04-09T19:00:38.877Z,5.55
2024-04-09T19:03:42.453Z,4.35
2024-04-09T19:06:46.535Z,4.30
2024-04-09T19:09:50.613Z,4.70
2024-04-09T19:12:55.648Z,5.28
2024-04-09T19:16:00.289Z,6.70
2024-04-09T19:19:05.544Z,6.45
2024-04-09T19:22:11.265Z,6.00
2024-04-09T19:25:15.793Z,6.67
2024-04-09T19:28:20.631Z,6.38
2024-04-09T19:31:27.062Z,6.55
2024-04-09T19:34:31.215Z,5.53
2024-04-09T19:37:37.568Z,5.40
2024-04-09T19:40:42.686Z,5.47
2024-04-09T19:43:46.885Z,5.82
2024-04-09T19:46:53.346Z,6.70
2024-04-09T19:50:00.391Z,5.32
2024-04-09T19:53:04.647Z,5.60
2024-04-09T19:56:08.887Z,5.33
2024-04-09T19:59:13.024Z,6.30
2024-04-09T20:02:22.854Z,6.93
2024-04-09T20:05:27.016Z,5.15
2024-04-09T20:08:32.682Z,5.05
2024-04-09T20:11:36.616Z,5.37
2024-04-09T20:14:42.874Z,5.00
2024-04-09T20:17:48.482Z,5.10
2024-04-09T20:20:54.681Z,4.97
2024-04-09T20:23:58.549Z,5.20
2024-04-09T20:27:02.424Z,5.13
2024-04-09T20:30:06.923Z,5.35
2024-04-09T20:33:10.887Z,5.20
2024-04-09T20:36:14.954Z,5.38
2024-04-09T20:39:25.312Z,4.75
2024-04-09T20:42:29.283Z,5.60
2024-04-09T20:45:33.438Z,5.90
2024-04-09T20:48:37.760Z,6.28
2024-04-09T20:51:41.741Z,5.97
2024-04-09T20:54:51.240Z,6.30
2024-04-09T20:57:55.984Z,6.30
2024-04-09T21:00:59.675Z,7.03
2024-04-09T21:04:03.763Z,6.95
2024-04-09T21:07:08.243Z,6.78
2024-04-09T21:10:17.770Z,6.22
2024-04-09T21:13:21.982Z,6.27
2024-04-09T21:16:26.017Z,6.85
2024-04-09T21:19:29.708Z,6.10
2024-04-09T21:22:33.304Z,4.03
2024-04-09T21:25:36.807Z,4.68
2024-04-09T21:28:40.342Z,5.07
2024-04-09T21:31:43.887Z,5.53
2024-04-09T21:34:50.795Z,5.78
2024-04-09T21:37:54.684Z,5.32
2024-04-09T21:41:24.346Z,5.65
2024-04-09T21:44:28.397Z,5.30
2024-04-09T21:47:32.241Z,4.97
2024-04-09T21:50:35.910Z,6.05
2024-04-09T21:53:39.822Z,4.97
2024-04-09T21:56:43.489Z,7.10
2024-04-09T21:59:47.107Z,8.43
2024-04-09T22:02:51.484Z,6.72
2024-04-09T22:05:55.029Z,7.65
2024-04-09T22:08:58.518Z,7.45
2024-04-09T22:12:02.129Z,5.63
2024-04-09T22:15:05.934Z,6.43
2024-04-09T22:18:09.970Z,5.40
2024-04-09T22:21:13.704Z,6.18
2024-04-09T22:24:17.694Z,7.30
2024-04-09T22:27:21.591Z,7.00
2024-04-09T22:30:25.139Z,7.13
2024-04-09T22:33:28.661Z,6.88
2024-04-09T22:36:32.429Z,6.90
2024-04-09T22:39:35.916Z,6.22
2024-04-09T22:42:39.677Z,7.35
2024-04-09T22:45:43.234Z,6.70
2024-04-09T22:48:47.834Z,6.22
2024-04-09T22:51:52.223Z,6.05
2024-04-09T22:54:55.893Z,6.53
2024-04-09T22:57:59.352Z,7.00
2024-04-09T23:01:07.733Z,5.80
2024-04-09T23:04:11.436Z,6.00
2024-04-09T23:07:15.554Z,6.82
2024-04-09T23:10:19.220Z,6.28
2024-04-09T23:13:22.716Z,6.40
2024-04-09T23:16:26.161Z,6.10
2024-04-09T23:19:30.344Z,6.55
2024-04-09T23:22:33.800Z,6.47
2024-04-09T23:25:37.274Z,7.03
2024-04-09T23:28:40.850Z,7.60
2024-04-09T23:31:44.605Z,7.97
2024-04-09T23:34:48.137Z,7.60
2024-04-09T23:37:51.703Z,7.88
2024-04-09T23:40:55.463Z,7.78
2024-04-09T23:43:59.042Z,7.30
2024-04-09T23:47:03.429Z,7.13
2024-04-09T23:50:08.279Z,8.05
2024-04-09T23:53:11.835Z,8.13
2024-04-09T23:56:15.367Z,6.70
2024-04-09T23:59:19.434Z,7.70
